createdAt,value
2017-05-14T00:00:29.121Z,0
2017-05-14T00:01:38.080Z,0
2017-05-14T00:02:47.047Z,0
2017-05-14T00:03:56.585Z,0
2017-05-14T00:05:05.592Z,0
2017-05-14T00:06:14.547Z,0
2017-05-14T00:07:23.506Z,0
2017-05-14T00:08:32.558Z,0
2017-05-14T00:09:41.822Z,0
2017-05-14T00:10:51.117Z,0
2017-05-14T00:12:00.079Z,0
2017-05-14T00:13:09.039Z,0
2017-05-14T00:14:18.002Z,0
2017-05-14T00:15:27.265Z,0
2017-05-14T00:16:36.236Z,0
2017-05-14T00:17:45.375Z,0
2017-05-14T00:18:54.331Z,0
2017-05-14T00:20:03.290Z,0
2017-05-14T00:21:12.552Z,0
2017-05-14T00:22:21.519Z,0
2017-05-14T00:23:30.800Z,0
2017-05-14T00:24:39.845Z,0
2017-05-14T00:25:48.807Z,0
2017-05-14T00:26:58.019Z,0
2017-05-14T00:28:06.985Z,0
2017-05-14T00:29:15.940Z,0
2017-05-14T00:30:24.901Z,0
2017-05-14T00:31:33.871Z,0
2017-05-14T00:32:43.136Z,0
2017-05-14T00:33:52.190Z,0
2017-05-14T00:35:01.154Z,0
2017-05-14T00:36:10.209Z,0
2017-05-14T00:37:19.165Z,0
2017-05-14T00:38:28.510Z,0
2017-05-14T00:39:37.557Z,0
2017-05-14T00:40:46.856Z,0
2017-05-14T00:41:55.812Z,0
2017-05-14T00:43:04.772Z,0
2017-05-14T00:44:14.033Z,0
2017-05-14T00:45:22.994Z,0
2017-05-14T00:46:31.957Z,0
2017-05-14T00:47:41.012Z,0
2017-05-14T00:48:50.062Z,0
2017-05-14T00:49:59.327Z,0
2017-05-14T00:51:08.284Z,0
2017-05-14T00:52:17.243Z,0
2017-05-14T00:53:26.290Z,0
2017-05-14T00:54:35.251Z,0
2017-05-14T00:55:44.513Z,0
2017-05-14T00:56:53.562Z,0
2017-05-14T00:58:02.516Z,0
2017-05-14T00:59:11.470Z,0
2017-05-14T01:00:20.434Z,0
2017-05-14T01:01:29.691Z,0
2017-05-14T01:02:38.657Z,0
2017-05-14T01:03:47.620Z,0
2017-05-14T01:04:56.581Z,0
2017-05-14T01:06:05.583Z,0
2017-05-14T01:07:14.843Z,0
2017-05-14T01:08:23.905Z,0
2017-05-14T01:09:32.876Z,0
2017-05-14T01:10:41.829Z,0
2017-05-14T01:11:50.790Z,0
2017-05-14T01:13:00.001Z,0
2017-05-14T01:14:08.961Z,0
2017-05-14T01:15:17.918Z,0
2017-05-14T01:16:26.881Z,0
2017-05-14T01:17:35.843Z,0
2017-05-14T01:18:45.146Z,0
2017-05-14T01:19:54.107Z,0
2017-05-14T01:21:03.071Z,0
2017-05-14T01:22:12.037Z,0
2017-05-14T01:23:21.042Z,0
2017-05-14T01:24:30.307Z,0
2017-05-14T01:25:39.271Z,0
2017-05-14T01:26:48.552Z,0
2017-05-14T01:27:57.523Z,0
2017-05-14T01:29:06.485Z,0
2017-05-14T01:30:15.700Z,0
2017-05-14T01:31:24.662Z,0
2017-05-14T01:32:33.623Z,0
2017-05-14T01:33:42.584Z,0
2017-05-14T01:34:51.590Z,0
2017-05-14T01:36:00.799Z,0
2017-05-14T01:37:09.758Z,0
2017-05-14T01:38:18.721Z,0
2017-05-14T01:39:27.733Z,0
2017-05-14T01:40:36.693Z,0
2017-05-14T01:41:45.898Z,0
2017-05-14T01:42:54.856Z,0
2017-05-14T01:44:03.816Z,0
2017-05-14T01:45:12.778Z,0
2017-05-14T01:46:21.741Z,0
2017-05-14T01:47:31.014Z,0
2017-05-14T01:48:40.022Z,0
2017-05-14T01:49:48.987Z,0
2017-05-14T01:50:57.951Z,0
2017-05-14T01:52:06.909Z,0
2017-05-14T01:53:16.171Z,0
2017-05-14T01:54:25.147Z,0
2017-05-14T01:55:34.103Z,0
2017-05-14T01:56:43.060Z,0
2017-05-14T01:57:52.023Z,0
2017-05-14T01:59:01.234Z,0
2017-05-14T02:00:10.197Z,0
2017-05-14T02:01:19.158Z,0
2017-05-14T02:02:28.120Z,0
2017-05-14T02:03:37.080Z,0
2017-05-14T02:04:46.291Z,0
2017-05-14T02:05:55.256Z,0
2017-05-14T02:07:04.222Z,0
2017-05-14T02:08:13.180Z,0
2017-05-14T02:09:22.146Z,0
2017-05-14T02:10:31.402Z,0
2017-05-14T02:11:40.363Z,0
2017-05-14T02:12:49.328Z,0
2017-05-14T02:13:58.285Z,0
2017-05-14T02:15:07.242Z,0
2017-05-14T02:16:16.502Z,0
2017-05-14T02:17:25.457Z,0
2017-05-14T02:18:34.423Z,0
2017-05-14T02:19:43.427Z,0
2017-05-14T02:20:52.391Z,0
2017-05-14T02:22:01.596Z,0
2017-05-14T02:23:10.557Z,0
2017-05-14T02:24:19.861Z,0
2017-05-14T02:25:28.821Z,0
2017-05-14T02:26:37.791Z,0
2017-05-14T02:27:47.013Z,0
2017-05-14T02:28:55.976Z,0
2017-05-14T02:30:04.934Z,0
2017-05-14T02:31:13.890Z,0
2017-05-14T02:32:22.848Z,0
2017-05-14T02:33:32.103Z,0
2017-05-14T02:34:41.061Z,0
2017-05-14T02:35:50.021Z,0
2017-05-14T02:36:58.987Z,0
2017-05-14T02:38:07.948Z,0
2017-05-14T02:39:17.203Z,0
2017-05-14T02:40:26.162Z,0
2017-05-14T02:41:35.121Z,0
2017-05-14T02:42:44.090Z,0
2017-05-14T02:43:53.063Z,0
2017-05-14T02:45:02.278Z,4
2017-05-14T02:46:11.239Z,4
2017-05-14T02:47:20.193Z,0
2017-05-14T02:48:29.154Z,0
2017-05-14T02:49:38.114Z,4
2017-05-14T02:50:47.377Z,4
2017-05-14T02:51:56.338Z,0
2017-05-14T02:53:05.298Z,4
2017-05-14T02:54:14.262Z,4
2017-05-14T02:55:23.216Z,4
2017-05-14T02:56:32.476Z,8
2017-05-14T02:57:41.445Z,8
2017-05-14T02:58:50.731Z,8
2017-05-14T02:59:59.694Z,8
2017-05-14T03:01:08.654Z,12
2017-05-14T03:02:17.952Z,12
2017-05-14T03:03:26.908Z,12
2017-05-14T03:04:35.866Z,16
2017-05-14T03:05:44.826Z,16
2017-05-14T03:06:53.787Z,16
2017-05-14T03:08:03.000Z,20
2017-05-14T03:09:11.960Z,20
2017-05-14T03:10:20.920Z,24
2017-05-14T03:11:29.881Z,24
2017-05-14T03:12:38.845Z,28
2017-05-14T03:13:48.061Z,32
2017-05-14T03:14:57.025Z,36
2017-05-14T03:16:06.035Z,36
2017-05-14T03:17:14.993Z,40
2017-05-14T03:18:23.954Z,44
2017-05-14T03:19:33.211Z,48
2017-05-14T03:20:42.171Z,52
2017-05-14T03:21:51.134Z,56
2017-05-14T03:23:00.094Z,56
2017-05-14T03:24:09.383Z,60
2017-05-14T03:25:18.681Z,68
2017-05-14T03:26:27.638Z,72
2017-05-14T03:27:36.602Z,76
2017-05-14T03:28:45.577Z,80
2017-05-14T03:29:54.543Z,84
2017-05-14T03:31:03.748Z,88
2017-05-14T03:32:12.702Z,96
2017-05-14T03:33:21.662Z,100
2017-05-14T03:34:30.624Z,108
2017-05-14T03:35:39.584Z,112
2017-05-14T03:36:48.794Z,120
2017-05-14T03:37:57.751Z,124
2017-05-14T03:39:06.712Z,132
2017-05-14T03:40:15.669Z,140
2017-05-14T03:41:24.623Z,144
2017-05-14T03:42:33.833Z,148
2017-05-14T03:43:42.791Z,156
2017-05-14T03:44:51.764Z,160
2017-05-14T03:46:00.730Z,168
2017-05-14T03:47:09.694Z,172
2017-05-14T03:48:18.904Z,172
2017-05-14T03:49:27.867Z,180
2017-05-14T03:50:36.832Z,188
2017-05-14T03:51:45.794Z,196
2017-05-14T03:52:54.755Z,208
2017-05-14T03:54:03.981Z,216
2017-05-14T03:55:12.940Z,228
2017-05-14T03:56:21.903Z,236
2017-05-14T03:57:30.863Z,240
2017-05-14T03:58:39.819Z,248
2017-05-14T03:59:49.080Z,256
2017-05-14T04:00:58.084Z,260
2017-05-14T04:02:07.040Z,272
2017-05-14T04:03:15.998Z,280
2017-05-14T04:04:24.954Z,284
2017-05-14T04:05:34.160Z,296
2017-05-14T04:06:43.117Z,304
2017-05-14T04:07:52.080Z,308
2017-05-14T04:09:01.044Z,316
2017-05-14T04:10:10.006Z,320
2017-05-14T04:11:19.207Z,328
2017-05-14T04:12:28.167Z,340
2017-05-14T04:13:37.131Z,348
2017-05-14T04:14:46.093Z,360
2017-05-14T04:15:55.056Z,364
2017-05-14T04:17:04.595Z,372
2017-05-14T04:18:13.561Z,376
2017-05-14T04:19:22.579Z,384
2017-05-14T04:20:31.546Z,396
2017-05-14T04:21:40.506Z,404
2017-05-14T04:22:49.714Z,412
2017-05-14T04:23:58.726Z,424
2017-05-14T04:25:07.686Z,440
2017-05-14T04:26:16.646Z,444
2017-05-14T04:27:25.601Z,448
2017-05-14T04:28:34.909Z,456
2017-05-14T04:29:43.871Z,468
2017-05-14T04:30:52.825Z,484
2017-05-14T04:32:01.789Z,492
2017-05-14T04:33:10.752Z,504
2017-05-14T04:34:19.958Z,516
2017-05-14T04:35:28.927Z,524
2017-05-14T04:36:37.885Z,536
2017-05-14T04:37:46.851Z,544
2017-05-14T04:38:55.812Z,556
2017-05-14T04:40:05.021Z,564
2017-05-14T04:41:13.979Z,572
2017-05-14T04:42:22.937Z,580
2017-05-14T04:43:31.899Z,592
2017-05-14T04:44:40.860Z,596
2017-05-14T04:45:50.082Z,604
2017-05-14T04:46:59.367Z,620
2017-05-14T04:48:08.325Z,644
2017-05-14T04:49:17.285Z,660
2017-05-14T04:50:26.244Z,688
2017-05-14T04:51:35.448Z,732
2017-05-14T04:52:44.411Z,728
2017-05-14T04:53:53.372Z,716
2017-05-14T04:55:02.338Z,768
2017-05-14T04:56:11.292Z,748
2017-05-14T04:57:20.512Z,788
2017-05-14T04:58:29.473Z,832
2017-05-14T04:59:38.433Z,820
2017-05-14T05:00:47.392Z,836
2017-05-14T05:01:56.354Z,820
2017-05-14T05:03:05.561Z,808
2017-05-14T05:04:14.567Z,872
2017-05-14T05:05:23.528Z,920
2017-05-14T05:06:32.485Z,916
2017-05-14T05:07:41.451Z,1008
2017-05-14T05:08:50.664Z,1056
2017-05-14T05:09:59.948Z,1076
2017-05-14T05:11:08.908Z,1068
2017-05-14T05:12:17.870Z,1260
2017-05-14T05:13:26.868Z,1228
2017-05-14T05:14:36.077Z,1212
2017-05-14T05:15:45.035Z,1232
2017-05-14T05:16:53.992Z,1200
2017-05-14T05:18:02.948Z,1244
2017-05-14T05:19:11.902Z,1308
2017-05-14T05:20:21.115Z,1184
2017-05-14T05:21:30.072Z,1164
2017-05-14T05:22:39.056Z,1356
2017-05-14T05:23:48.338Z,1248
2017-05-14T05:24:57.299Z,1292
2017-05-14T05:26:06.512Z,1276
2017-05-14T05:27:15.475Z,1384
2017-05-14T05:28:24.439Z,1256
2017-05-14T05:29:33.398Z,1236
2017-05-14T05:30:42.355Z,1228
2017-05-14T05:31:51.562Z,1344
2017-05-14T05:33:00.527Z,1580
2017-05-14T05:34:09.489Z,1400
2017-05-14T05:35:18.452Z,1228
2017-05-14T05:36:27.411Z,1396
2017-05-14T05:37:36.974Z,1432
2017-05-14T05:38:45.950Z,1496
2017-05-14T05:39:54.913Z,1436
2017-05-14T05:41:03.874Z,1396
2017-05-14T05:42:12.828Z,1396
2017-05-14T05:43:22.083Z,1388
2017-05-14T05:44:31.048Z,1448
2017-05-14T05:45:40.330Z,1468
2017-05-14T05:46:49.376Z,1512
2017-05-14T05:47:58.326Z,1372
2017-05-14T05:49:22.400Z,1604
2017-05-14T05:50:31.370Z,1480
2017-05-14T05:51:40.335Z,1548
2017-05-14T05:52:49.297Z,1548
2017-05-14T05:53:58.254Z,1580
2017-05-14T05:55:07.510Z,1612
2017-05-14T05:56:16.472Z,1604
2017-05-14T05:57:25.431Z,1548
2017-05-14T05:58:34.392Z,1520
2017-05-14T05:59:43.354Z,1692
2017-05-14T06:00:52.616Z,1804
2017-05-14T06:02:01.576Z,1820
2017-05-14T06:03:10.537Z,1692
2017-05-14T06:04:19.493Z,1732
2017-05-14T06:05:28.455Z,1908
2017-05-14T06:06:37.663Z,1824
2017-05-14T06:07:46.989Z,1708
2017-05-14T06:08:55.942Z,1724
2017-05-14T06:10:04.895Z,1964
2017-05-14T06:11:13.857Z,1728
2017-05-14T06:12:23.067Z,1980
2017-05-14T06:13:32.024Z,2260
2017-05-14T06:14:40.987Z,2040
2017-05-14T06:15:49.940Z,2100
2017-05-14T06:16:58.902Z,2156
2017-05-14T06:18:08.114Z,2444
2017-05-14T06:19:17.075Z,2036
2017-05-14T06:20:26.039Z,1948
2017-05-14T06:21:34.998Z,2700
2017-05-14T06:22:43.965Z,2308
2017-05-14T06:23:53.229Z,2480
2017-05-14T06:25:02.189Z,2676
2017-05-14T06:26:11.153Z,2828
2017-05-14T06:27:20.112Z,2428
2017-05-14T06:28:29.070Z,1908
2017-05-14T06:29:38.276Z,2272
2017-05-14T06:30:47.320Z,2536
2017-05-14T06:31:56.282Z,2320
2017-05-14T06:33:05.241Z,2492
2017-05-14T06:34:14.197Z,2220
2017-05-14T06:35:23.410Z,2472
2017-05-14T06:36:32.369Z,2324
2017-05-14T06:37:41.325Z,2720
2017-05-14T06:38:50.286Z,2880
2017-05-14T06:39:59.574Z,2740
2017-05-14T06:41:08.787Z,2824
2017-05-14T06:42:17.744Z,2804
2017-05-14T06:43:26.718Z,2216
2017-05-14T06:44:35.680Z,2112
2017-05-14T06:45:44.640Z,2488
2017-05-14T06:46:53.859Z,1928
2017-05-14T06:48:03.140Z,2032
2017-05-14T06:49:12.103Z,1844
2017-05-14T06:50:21.057Z,1984
2017-05-14T06:51:30.338Z,1688
2017-05-14T06:52:39.547Z,1844
2017-05-14T06:53:48.504Z,1808
2017-05-14T06:54:57.468Z,1820
2017-05-14T06:56:06.425Z,1784
2017-05-14T06:57:15.380Z,1848
2017-05-14T06:58:24.591Z,1868
2017-05-14T06:59:33.595Z,1856
2017-05-14T07:00:42.559Z,1824
2017-05-14T07:01:51.518Z,1828
2017-05-14T07:03:00.476Z,1832
2017-05-14T07:04:09.733Z,1832
2017-05-14T07:05:18.692Z,1832
2017-05-14T07:06:27.700Z,1840
2017-05-14T07:07:36.665Z,1828
2017-05-14T07:08:45.629Z,1864
2017-05-14T07:09:54.837Z,1884
2017-05-14T07:11:03.803Z,1856
2017-05-14T07:12:12.767Z,1848
2017-05-14T07:13:21.722Z,1912
2017-05-14T07:14:30.685Z,1876
2017-05-14T07:15:39.892Z,1808
2017-05-14T07:16:48.854Z,1808
2017-05-14T07:17:57.816Z,1820
2017-05-14T07:19:06.777Z,1804
2017-05-14T07:20:15.739Z,1808
2017-05-14T07:21:24.944Z,1844
2017-05-14T07:22:33.912Z,1868
2017-05-14T07:23:42.869Z,1888
2017-05-14T07:24:51.843Z,1956
2017-05-14T07:26:00.801Z,2052
2017-05-14T07:27:10.064Z,2204
2017-05-14T07:28:19.031Z,2280
2017-05-14T07:29:27.995Z,2308
2017-05-14T07:30:36.949Z,2236
2017-05-14T07:31:45.999Z,2212
2017-05-14T07:32:55.214Z,2236
2017-05-14T07:34:04.176Z,2316
2017-05-14T07:35:13.137Z,2356
2017-05-14T07:36:22.094Z,2388
2017-05-14T07:37:31.060Z,2480
2017-05-14T07:38:40.267Z,2572
2017-05-14T07:39:49.230Z,2680
2017-05-14T07:40:58.184Z,2716
2017-05-14T07:42:07.172Z,2764
2017-05-14T07:43:16.451Z,2740
2017-05-14T07:44:25.667Z,2716
2017-05-14T07:45:34.628Z,2684
2017-05-14T07:46:43.587Z,2648
2017-05-14T07:47:52.547Z,2700
2017-05-14T07:49:01.517Z,2668
2017-05-14T07:50:10.818Z,2584
2017-05-14T07:51:19.778Z,2528
2017-05-14T07:52:28.908Z,2688
2017-05-14T07:53:37.959Z,2828
2017-05-14T07:54:46.922Z,2760
2017-05-14T07:55:56.134Z,2772
2017-05-14T07:57:05.096Z,2728
2017-05-14T07:58:14.054Z,2832
2017-05-14T07:59:23.016Z,2936
2017-05-14T08:00:31.976Z,2940
2017-05-14T08:01:41.187Z,2988
2017-05-14T08:02:50.162Z,2920
2017-05-14T08:03:59.444Z,2840
2017-05-14T08:05:08.411Z,2752
2017-05-14T08:06:17.376Z,2704
2017-05-14T08:07:26.584Z,2664
2017-05-14T08:08:35.587Z,2296
2017-05-14T08:09:44.550Z,2268
2017-05-14T08:10:53.543Z,2356
2017-05-14T08:12:02.547Z,2384
2017-05-14T08:13:11.760Z,2476
2017-05-14T08:14:20.809Z,2596
2017-05-14T08:15:29.770Z,2780
2017-05-14T08:16:38.822Z,2524
2017-05-14T08:17:47.785Z,2172
2017-05-14T08:18:57.088Z,2436
2017-05-14T08:20:06.049Z,2944
2017-05-14T08:21:15.098Z,2920
2017-05-14T08:22:24.065Z,3108
2017-05-14T08:23:33.028Z,3036
2017-05-14T08:24:42.240Z,2748
2017-05-14T08:25:51.205Z,2828
2017-05-14T08:27:00.167Z,2836
2017-05-14T08:28:09.135Z,1904
2017-05-14T08:29:18.186Z,3064
2017-05-14T08:30:27.393Z,3148
2017-05-14T08:31:36.356Z,3236
2017-05-14T08:32:45.320Z,3232
2017-05-14T08:33:54.286Z,3240
2017-05-14T08:35:03.567Z,3260
2017-05-14T08:36:12.785Z,3308
2017-05-14T08:37:21.746Z,3272
2017-05-14T08:38:30.710Z,3240
2017-05-14T08:39:39.675Z,3136
2017-05-14T08:40:48.635Z,3164
2017-05-14T08:41:57.844Z,3180
2017-05-14T08:43:06.810Z,3228
2017-05-14T08:44:15.775Z,3292
2017-05-14T08:45:24.736Z,3496
2017-05-14T08:46:33.792Z,3972
2017-05-14T08:47:43.001Z,4340
2017-05-14T08:48:51.959Z,4544
2017-05-14T08:50:00.924Z,4724
2017-05-14T08:51:09.896Z,4092
2017-05-14T08:52:18.857Z,3644
2017-05-14T08:53:28.119Z,3452
2017-05-14T08:54:37.082Z,3024
2017-05-14T08:55:46.040Z,2996
2017-05-14T08:56:55.000Z,2900
2017-05-14T08:58:03.964Z,2752
2017-05-14T08:59:12.926Z,2624
2017-05-14T09:00:21.890Z,2588
2017-05-14T09:01:30.857Z,2672
2017-05-14T09:02:39.817Z,2844
2017-05-14T09:03:48.785Z,2924
2017-05-14T09:04:57.996Z,2968
2017-05-14T09:06:06.955Z,3216
2017-05-14T09:07:15.921Z,3312
2017-05-14T09:08:24.881Z,3468
2017-05-14T09:09:33.842Z,3588
2017-05-14T09:10:43.059Z,3468
2017-05-14T09:11:52.021Z,3192
2017-05-14T09:13:01.000Z,3228
2017-05-14T09:14:09.956Z,3472
2017-05-14T09:15:18.918Z,3236
2017-05-14T09:16:28.131Z,3364
2017-05-14T09:17:37.183Z,3844
2017-05-14T09:18:46.143Z,3744
2017-05-14T09:19:55.104Z,3376
2017-05-14T09:21:04.073Z,2900
2017-05-14T09:22:13.335Z,2504
2017-05-14T09:23:22.638Z,2604
2017-05-14T09:24:31.598Z,2620
2017-05-14T09:25:40.566Z,2656
2017-05-14T09:26:49.538Z,2672
2017-05-14T09:27:58.754Z,2808
2017-05-14T09:29:07.711Z,2848
2017-05-14T09:30:16.672Z,2856
2017-05-14T09:31:25.635Z,2784
2017-05-14T09:32:34.654Z,2848
2017-05-14T09:33:43.955Z,2812
2017-05-14T09:34:52.918Z,2832
2017-05-14T09:36:02.208Z,2788
2017-05-14T09:37:11.170Z,2748
2017-05-14T09:38:20.225Z,2760
2017-05-14T09:39:29.437Z,2812
2017-05-14T09:40:38.397Z,2840
2017-05-14T09:41:47.361Z,2868
2017-05-14T09:42:56.420Z,2932
2017-05-14T09:44:05.383Z,3036
2017-05-14T09:45:14.598Z,3216
2017-05-14T09:46:23.561Z,2944
2017-05-14T09:47:32.528Z,2872
2017-05-14T09:48:41.581Z,2988
2017-05-14T09:49:50.564Z,3160
2017-05-14T09:51:00.099Z,3292
2017-05-14T09:52:09.065Z,3128
2017-05-14T09:53:18.023Z,2840
2017-05-14T09:54:26.985Z,2828
2017-05-14T09:55:35.948Z,3056
2017-05-14T09:56:45.161Z,2988
2017-05-14T09:57:54.123Z,2908
2017-05-14T09:59:03.176Z,3108
2017-05-14T10:00:12.147Z,3380
2017-05-14T10:01:21.109Z,3096
2017-05-14T10:02:30.322Z,2896
2017-05-14T10:03:39.285Z,2876
2017-05-14T10:04:48.251Z,2896
2017-05-14T10:05:57.550Z,2936
2017-05-14T10:07:06.513Z,2916
2017-05-14T10:08:15.724Z,2984
2017-05-14T10:09:24.686Z,3084
2017-05-14T10:10:33.750Z,3100
2017-05-14T10:11:42.714Z,3144
2017-05-14T10:12:51.678Z,3088
2017-05-14T10:14:00.895Z,2888
2017-05-14T10:15:09.910Z,2776
2017-05-14T10:16:18.870Z,2728
2017-05-14T10:17:27.832Z,2728
2017-05-14T10:18:36.796Z,2752
2017-05-14T10:19:46.011Z,3236
2017-05-14T10:20:54.974Z,3384
2017-05-14T10:22:03.934Z,4360
2017-05-14T10:23:12.941Z,4628
2017-05-14T10:24:21.914Z,4204
2017-05-14T10:25:31.132Z,3480
2017-05-14T10:26:40.188Z,3900
2017-05-14T10:27:49.148Z,4316
2017-05-14T10:28:58.115Z,3272
2017-05-14T10:30:07.079Z,2544
2017-05-14T10:31:16.290Z,1976
2017-05-14T10:32:25.262Z,2056
2017-05-14T10:33:34.227Z,2452
2017-05-14T10:34:43.189Z,2356
2017-05-14T10:35:52.167Z,2396
2017-05-14T10:37:01.379Z,3172
2017-05-14T10:38:10.341Z,2696
2017-05-14T10:39:19.302Z,3516
2017-05-14T10:40:28.278Z,3668
2017-05-14T10:41:37.236Z,3516
2017-05-14T10:42:46.541Z,3436
2017-05-14T10:43:55.499Z,3620
2017-05-14T10:45:04.467Z,4004
2017-05-14T10:46:13.521Z,4416
2017-05-14T10:47:22.487Z,4600
2017-05-14T10:48:31.709Z,4452
2017-05-14T10:49:40.680Z,3404
2017-05-14T10:50:49.640Z,2788
2017-05-14T10:51:58.601Z,2396
2017-05-14T10:53:07.563Z,2208
2017-05-14T10:54:17.103Z,2416
2017-05-14T10:55:26.394Z,3104
2017-05-14T10:56:35.371Z,3772
2017-05-14T10:57:44.332Z,4364
2017-05-14T10:58:53.389Z,4044
2017-05-14T11:00:02.603Z,4488
2017-05-14T11:01:11.570Z,4512
2017-05-14T11:02:20.544Z,4324
2017-05-14T11:03:29.507Z,3856
2017-05-14T11:04:38.473Z,3664
2017-05-14T11:05:47.684Z,3508
2017-05-14T11:06:56.653Z,3512
2017-05-14T11:08:05.619Z,3676
2017-05-14T11:09:14.584Z,3892
2017-05-14T11:10:23.550Z,4136
2017-05-14T11:11:32.765Z,3656
2017-05-14T11:12:41.815Z,3848
2017-05-14T11:13:50.787Z,3544
2017-05-14T11:14:59.751Z,3556
2017-05-14T11:16:08.712Z,3708
2017-05-14T11:17:17.925Z,4036
2017-05-14T11:18:26.890Z,3844
2017-05-14T11:19:35.858Z,3712
2017-05-14T11:20:44.911Z,4140
2017-05-14T11:21:53.871Z,4336
2017-05-14T11:23:03.087Z,3524
2017-05-14T11:24:12.050Z,3652
2017-05-14T11:25:21.341Z,3084
2017-05-14T11:26:30.306Z,3048
2017-05-14T11:27:39.272Z,2776
2017-05-14T11:28:48.527Z,2572
2017-05-14T11:29:57.487Z,2548
2017-05-14T11:31:06.501Z,2620
2017-05-14T11:32:15.470Z,2536
2017-05-14T11:33:24.432Z,2440
2017-05-14T11:34:33.654Z,2428
2017-05-14T11:35:42.616Z,2492
2017-05-14T11:36:51.577Z,2072
2017-05-14T11:38:00.540Z,2104
2017-05-14T11:39:09.833Z,2428
2017-05-14T11:40:19.052Z,2548
2017-05-14T11:41:28.018Z,2176
2017-05-14T11:42:36.985Z,3124
2017-05-14T11:43:45.951Z,2888
2017-05-14T11:44:54.914Z,2728
2017-05-14T11:46:04.129Z,2564
2017-05-14T11:47:13.096Z,2540
2017-05-14T11:48:22.067Z,2432
2017-05-14T11:49:31.118Z,2508
2017-05-14T11:50:40.084Z,2404
2017-05-14T11:51:49.359Z,2340
2017-05-14T11:52:58.322Z,2320
2017-05-14T11:54:07.283Z,2384
2017-05-14T11:55:16.242Z,2392
2017-05-14T11:56:25.205Z,2420
2017-05-14T11:57:34.428Z,2544
2017-05-14T11:58:43.439Z,2536
2017-05-14T11:59:52.411Z,2608
2017-05-14T12:01:01.422Z,2572
2017-05-14T12:02:10.472Z,2508
2017-05-14T12:03:19.685Z,2500
2017-05-14T12:04:28.653Z,2408
2017-05-14T12:05:37.621Z,2396
2017-05-14T12:06:46.587Z,2348
2017-05-14T12:07:55.549Z,2360
2017-05-14T12:09:04.768Z,2320
2017-05-14T12:10:13.728Z,2336
2017-05-14T12:11:22.701Z,2276
2017-05-14T12:12:31.676Z,2356
2017-05-14T12:13:40.636Z,1924
2017-05-14T12:14:50.177Z,1952
2017-05-14T12:15:59.142Z,1972
2017-05-14T12:17:08.105Z,1732
2017-05-14T12:18:17.085Z,1708
2017-05-14T12:19:26.051Z,2100
2017-05-14T12:20:35.283Z,2472
2017-05-14T12:21:44.339Z,2780
2017-05-14T12:22:53.299Z,3260
2017-05-14T12:24:02.269Z,3164
2017-05-14T12:25:11.231Z,3104
2017-05-14T12:26:20.445Z,3296
2017-05-14T12:27:29.451Z,3164
2017-05-14T12:28:38.496Z,3052
2017-05-14T12:29:47.461Z,2644
2017-05-14T12:30:56.416Z,2308
2017-05-14T12:32:05.628Z,2184
2017-05-14T12:33:14.597Z,2236
2017-05-14T12:34:23.563Z,2268
2017-05-14T12:35:32.527Z,2476
2017-05-14T12:36:41.495Z,2556
2017-05-14T12:37:50.711Z,2624
2017-05-14T12:38:59.673Z,2728
2017-05-14T12:40:08.646Z,2688
2017-05-14T12:41:17.615Z,2516
2017-05-14T12:42:26.588Z,2452
2017-05-14T12:43:35.802Z,2680
2017-05-14T12:44:44.766Z,2708
2017-05-14T12:45:53.741Z,2716
2017-05-14T12:47:02.716Z,2900
2017-05-14T12:48:11.689Z,2904
2017-05-14T12:49:20.904Z,2972
2017-05-14T12:50:30.203Z,2968
2017-05-14T12:51:39.256Z,2736
2017-05-14T12:52:48.317Z,2900
2017-05-14T12:53:57.280Z,2940
2017-05-14T12:55:06.497Z,2756
2017-05-14T12:56:15.462Z,2636
2017-05-14T12:57:24.426Z,2472
2017-05-14T12:58:33.479Z,2372
2017-05-14T12:59:42.446Z,2580
2017-05-14T13:00:51.707Z,2536
2017-05-14T13:02:00.761Z,2504
2017-05-14T13:03:09.725Z,2440
2017-05-14T13:04:19.008Z,2256
2017-05-14T13:05:28.299Z,2176
2017-05-14T13:06:37.508Z,2124
2017-05-14T13:07:46.504Z,2000
2017-05-14T13:08:55.468Z,2068
2017-05-14T13:10:04.434Z,1924
2017-05-14T13:11:13.485Z,1852
2017-05-14T13:12:22.700Z,1916
2017-05-14T13:13:31.750Z,1952
2017-05-14T13:14:40.715Z,1832
2017-05-14T13:15:49.685Z,1860
2017-05-14T13:16:58.651Z,1752
2017-05-14T13:18:07.870Z,1728
2017-05-14T13:19:16.827Z,1752
2017-05-14T13:20:25.787Z,1656
2017-05-14T13:21:34.751Z,1564
2017-05-14T13:22:43.716Z,1528
2017-05-14T13:23:52.929Z,1380
2017-05-14T13:25:01.898Z,1392
2017-05-14T13:26:10.865Z,1208
2017-05-14T13:27:19.842Z,1120
2017-05-14T13:28:28.802Z,1104
2017-05-14T13:29:38.106Z,1036
2017-05-14T13:30:47.069Z,988
2017-05-14T13:31:56.033Z,952
2017-05-14T13:33:04.996Z,884
2017-05-14T13:34:13.961Z,876
2017-05-14T13:35:23.312Z,832
2017-05-14T13:36:32.276Z,848
2017-05-14T13:37:41.576Z,784
2017-05-14T13:38:50.537Z,796
2017-05-14T13:39:59.503Z,716
2017-05-14T13:41:08.768Z,700
2017-05-14T13:42:17.729Z,700
2017-05-14T13:43:26.693Z,688
2017-05-14T13:44:35.659Z,656
2017-05-14T13:45:44.626Z,672
2017-05-14T13:46:53.841Z,628
2017-05-14T13:48:02.807Z,620
2017-05-14T13:49:11.769Z,616
2017-05-14T13:50:20.738Z,600
2017-05-14T13:51:29.705Z,588
2017-05-14T13:52:39.010Z,608
2017-05-14T13:53:48.299Z,572
2017-05-14T13:54:57.262Z,564
2017-05-14T13:56:06.227Z,536
2017-05-14T13:57:15.190Z,576
2017-05-14T13:58:24.455Z,540
2017-05-14T13:59:33.421Z,556
2017-05-14T14:00:42.388Z,540
2017-05-14T14:01:51.356Z,544
2017-05-14T14:03:00.323Z,556
2017-05-14T14:04:09.542Z,568
2017-05-14T14:05:18.592Z,592
2017-05-14T14:06:27.896Z,596
2017-05-14T14:07:36.857Z,556
2017-05-14T14:08:45.819Z,512
2017-05-14T14:09:55.120Z,464
2017-05-14T14:11:04.456Z,444
2017-05-14T14:12:13.418Z,472
2017-05-14T14:13:22.420Z,496
2017-05-14T14:14:31.385Z,492
2017-05-14T14:15:40.599Z,492
2017-05-14T14:16:49.566Z,512
2017-05-14T14:17:58.853Z,544
2017-05-14T14:19:07.816Z,544
2017-05-14T14:20:16.870Z,528
2017-05-14T14:21:26.168Z,488
2017-05-14T14:22:35.128Z,496
2017-05-14T14:23:44.087Z,544
2017-05-14T14:24:53.045Z,620
2017-05-14T14:26:02.013Z,676
2017-05-14T14:27:11.310Z,768
2017-05-14T14:28:20.272Z,892
2017-05-14T14:29:29.229Z,1048
2017-05-14T14:30:38.195Z,1220
2017-05-14T14:31:47.239Z,1324
2017-05-14T14:32:56.787Z,1316
2017-05-14T14:34:05.838Z,1260
2017-05-14T14:35:14.802Z,1252
2017-05-14T14:36:23.773Z,1312
2017-05-14T14:37:32.731Z,1316
2017-05-14T14:38:41.946Z,1288
2017-05-14T14:39:50.905Z,1408
2017-05-14T14:40:59.863Z,1548
2017-05-14T14:42:08.827Z,1696
2017-05-14T14:43:17.795Z,1748
2017-05-14T14:44:27.050Z,1740
2017-05-14T14:45:36.017Z,1724
2017-05-14T14:46:44.979Z,1672
2017-05-14T14:47:53.946Z,1612
2017-05-14T14:49:02.901Z,1520
2017-05-14T14:50:12.126Z,1392
2017-05-14T14:51:21.090Z,1384
2017-05-14T14:52:30.053Z,1352
2017-05-14T14:53:39.014Z,1336
2017-05-14T14:54:47.972Z,1364
2017-05-14T14:55:57.182Z,1380
2017-05-14T14:57:06.142Z,1384
2017-05-14T14:58:15.189Z,1308
2017-05-14T14:59:24.156Z,1304
2017-05-14T15:00:33.441Z,1300
2017-05-14T15:01:42.700Z,1252
2017-05-14T15:02:51.665Z,1204
2017-05-14T15:04:00.627Z,1204
2017-05-14T15:05:09.591Z,1248
2017-05-14T15:06:18.638Z,1332
2017-05-14T15:07:27.850Z,1304
2017-05-14T15:08:36.944Z,1324
2017-05-14T15:09:45.899Z,1348
2017-05-14T15:10:54.860Z,1520
2017-05-14T15:12:03.828Z,1652
2017-05-14T15:13:13.041Z,1804
2017-05-14T15:14:21.999Z,1688
2017-05-14T15:15:31.284Z,1660
2017-05-14T15:16:40.246Z,1772
2017-05-14T15:17:49.212Z,1884
2017-05-14T15:18:58.422Z,1860
2017-05-14T15:20:07.383Z,1768
2017-05-14T15:21:16.671Z,1652
2017-05-14T15:22:25.632Z,1548
2017-05-14T15:23:34.596Z,1556
2017-05-14T15:24:43.805Z,1600
2017-05-14T15:25:52.774Z,1492
2017-05-14T15:27:01.740Z,1472
2017-05-14T15:28:10.698Z,1420
2017-05-14T15:29:19.745Z,1384
2017-05-14T15:30:29.045Z,1372
2017-05-14T15:31:38.014Z,1460
2017-05-14T15:32:47.147Z,1576
2017-05-14T15:33:56.154Z,1540
2017-05-14T15:35:05.113Z,1552
2017-05-14T15:36:14.326Z,1536
2017-05-14T15:37:23.287Z,1344
2017-05-14T15:38:32.243Z,1152
2017-05-14T15:39:41.200Z,1000
2017-05-14T15:40:50.162Z,928
2017-05-14T15:41:59.380Z,912
2017-05-14T15:43:08.338Z,904
2017-05-14T15:44:17.328Z,908